Time;durP1;ratioP1;P1;durP2;ratioP2;P2;SDS_P1;SDS_P2;PMS_P1;PMS_P2;Temp;Humidity;BMP_temperature;BMP_pressure;BME280_temperature;BME280_humidity;BME280_pressure;Samples;Min_cycle;Max_cycle;Signal;HPM_P1;HPM_P2
2022/07/28 00:00:08;;;;;;;2.57;0.40;;;;;;;;;;5301313;28;20468;-73
2022/07/28 00:02:40;;;;;;;3.42;0.40;;;;;;;;;;5305937;28;20294;-73
2022/07/28 00:05:11;;;;;;;2.78;0.30;;;;;;;;;;5306698;28;20023;-73
2022/07/28 00:07:42;;;;;;;2.22;0.40;;;;;;;;;;5305633;28;20288;-74
2022/07/28 00:10:13;;;;;;;3.08;0.40;;;;;;;;;;5306427;28;20107;-73
2022/07/28 00:12:44;;;;;;;4.77;0.50;;;;;;;;;;5306249;28;20266;-73
2022/07/28 00:15:15;;;;;;;3.27;0.33;;;;;;;;;;5306286;28;20673;-73
2022/07/28 00:17:47;;;;;;;5.22;0.40;;;;;;;;;;5306494;28;20270;-72
2022/07/28 00:20:19;;;;;;;5.10;0.50;;;;;;;;;;5305204;28;20367;-73
2022/07/28 00:22:50;;;;;;;11.43;1.25;;;;;;;;;;5306396;28;20039;-73
2022/07/28 00:25:22;;;;;;;2.00;0.40;;;;;;;;;;5305869;28;20020;-73
2022/07/28 00:27:53;;;;;;;8.50;0.70;;;;;;;;;;5305815;28;20258;-73
2022/07/28 00:30:24;;;;;;;3.50;0.40;;;;;;;;;;5305997;28;20272;-74
2022/07/28 00:32:55;;;;;;;3.72;0.50;;;;;;;;;;5306409;28;20056;-74
2022/07/28 00:35:26;;;;;;;3.20;0.40;;;;;;;;;;5304977;28;20024;-75
2022/07/28 00:37:58;;;;;;;3.80;0.40;;;;;;;;;;5306159;28;20089;-74
2022/07/28 00:43:30;;;;;;;5.38;0.40;;;;;;;;;;5291225;28;20089;-74
2022/07/28 00:46:01;;;;;;;3.03;0.40;;;;;;;;;;5305687;28;20355;-75
2022/07/28 00:48:33;;;;;;;3.83;0.50;;;;;;;;;;5305335;28;20277;-75
2022/07/28 00:51:04;;;;;;;1.77;0.35;;;;;;;;;;5305867;28;20032;-74
2022/07/28 00:53:36;;;;;;;4.15;0.47;;;;;;;;;;5305788;28;20020;-74
2022/07/28 00:56:07;;;;;;;3.63;0.68;;;;;;;;;;5304772;28;20020;-74
2022/07/28 00:58:39;;;;;;;4.07;0.60;;;;;;;;;;5305348;28;20379;-74
2022/07/28 01:01:14;;;;;;;7.30;0.60;;;;;;;;;;5305402;28;20056;-75
2022/07/28 01:03:56;;;;;;;2.10;0.40;;;;;;;;;;5304702;28;20050;-74
2022/07/28 01:06:30;;;;;;;3.08;0.40;;;;;;;;;;5305044;28;20103;-72
2022/07/28 01:09:13;;;;;;;4.30;0.50;;;;;;;;;;5304765;28;20046;-73
2022/07/28 01:11:49;;;;;;;5.20;0.65;;;;;;;;;;5305124;28;20031;-73
2022/07/28 01:14:33;;;;;;;2.63;0.43;;;;;;;;;;5304974;28;20039;-73
2022/07/28 01:17:09;;;;;;;4.35;0.50;;;;;;;;;;5304279;28;20040;-73
2022/07/28 01:20:10;;;;;;;2.97;0.52;;;;;;;;;;5305090;28;20424;-73
2022/07/28 01:22:53;;;;;;;5.63;0.60;;;;;;;;;;5291387;28;20103;-73
2022/07/28 01:25:33;;;;;;;4.03;0.70;;;;;;;;;;5303982;28;20020;-73
2022/07/28 01:28:13;;;;;;;2.00;0.40;;;;;;;;;;5305223;28;20016;-72
2022/07/28 01:30:46;;;;;;;5.20;0.50;;;;;;;;;;5304230;28;20031;-73
2022/07/28 01:33:18;;;;;;;4.45;0.60;;;;;;;;;;5304988;28;20012;-73
2022/07/28 01:35:55;;;;;;;4.53;0.77;;;;;;;;;;5305318;28;20441;-73
2022/07/28 01:38:27;;;;;;;3.17;0.40;;;;;;;;;;5303674;28;20027;-73
2022/07/28 01:40:59;;;;;;;2.92;0.75;;;;;;;;;;5304947;28;20459;-74
2022/07/28 01:43:33;;;;;;;2.72;0.50;;;;;;;;;;5304367;28;20169;-73
2022/07/28 01:46:05;;;;;;;5.60;0.60;;;;;;;;;;5303827;28;20008;-74
2022/07/28 01:48:38;;;;;;;3.15;0.50;;;;;;;;;;5304723;28;20023;-73
2022/07/28 01:51:10;;;;;;;6.45;0.65;;;;;;;;;;5304721;28;20026;-73
2022/07/28 01:53:42;;;;;;;2.67;0.70;;;;;;;;;;5304010;28;20016;-73
2022/07/28 01:56:15;;;;;;;3.33;0.75;;;;;;;;;;5304612;28;20016;-73
2022/07/28 01:58:49;;;;;;;3.47;0.60;;;;;;;;;;5303680;28;20024;-73
2022/07/28 02:01:22;;;;;;;3.50;0.70;;;;;;;;;;5303937;28;20016;-73
2022/07/28 02:03:53;;;;;;;5.63;0.60;;;;;;;;;;5304846;28;20028;-73
2022/07/28 02:06:25;;;;;;;4.45;0.52;;;;;;;;;;5303488;28;20070;-73
2022/07/28 02:08:57;;;;;;;2.97;0.70;;;;;;;;;;5304613;28;20027;-72
2022/07/28 02:11:41;;;;;;;4.15;0.60;;;;;;;;;;5303757;28;20032;-72
2022/07/28 02:14:14;;;;;;;2.35;0.60;;;;;;;;;;5303698;28;20091;-72
2022/07/28 02:16:48;;;;;;;3.30;0.55;;;;;;;;;;5304174;28;20042;-73
2022/07/28 02:19:20;;;;;;;2.10;0.60;;;;;;;;;;5303680;28;20028;-74
2022/07/28 02:21:53;;;;;;;3.08;0.50;;;;;;;;;;5303544;28;20147;-73
2022/07/28 02:24:27;;;;;;;4.78;0.95;;;;;;;;;;5303416;28;20375;-74
2022/07/28 02:27:06;;;;;;;8.05;0.70;;;;;;;;;;5303347;28;20028;-74
2022/07/28 02:29:47;;;;;;;6.35;0.60;;;;;;;;;;5303959;28;20027;-73
2022/07/28 02:32:21;;;;;;;3.33;0.55;;;;;;;;;;5303685;28;20601;-74
2022/07/28 02:34:54;;;;;;;6.55;0.75;;;;;;;;;;5303250;28;20015;-73
2022/07/28 02:37:25;;;;;;;6.28;0.70;;;;;;;;;;5303664;28;20027;-73
2022/07/28 02:39:57;;;;;;;5.32;0.70;;;;;;;;;;5304137;28;20028;-73
2022/07/28 02:42:31;;;;;;;8.07;0.68;;;;;;;;;;5302464;28;20063;-74
2022/07/28 02:45:04;;;;;;;6.43;0.80;;;;;;;;;;5303506;28;20319;-74
2022/07/28 02:47:37;;;;;;;3.70;0.70;;;;;;;;;;5302940;28;20059;-73
2022/07/28 02:50:09;;;;;;;4.55;0.60;;;;;;;;;;5303498;28;20103;-73
2022/07/28 02:52:41;;;;;;;5.40;1.05;;;;;;;;;;5303453;28;20098;-74
2022/07/28 02:55:14;;;;;;;4.30;0.63;;;;;;;;;;5302529;28;20020;-73
2022/07/28 02:57:46;;;;;;;4.05;0.80;;;;;;;;;;5303551;28;20020;-73
2022/07/28 03:00:18;;;;;;;3.00;0.70;;;;;;;;;;5303146;28;20095;-73
2022/07/28 03:02:49;;;;;;;3.30;0.68;;;;;;;;;;5302554;28;20565;-72
2022/07/28 03:05:20;;;;;;;2.42;0.70;;;;;;;;;;5302968;28;20012;-74
2022/07/28 03:07:52;;;;;;;5.63;0.85;;;;;;;;;;5303350;28;20020;-73
2022/07/28 03:10:24;;;;;;;2.63;0.93;;;;;;;;;;5302194;28;20035;-73
2022/07/28 03:12:55;;;;;;;3.13;0.80;;;;;;;;;;5303226;28;20028;-74
2022/07/28 03:15:27;;;;;;;4.95;0.77;;;;;;;;;;5302751;28;20490;-72
2022/07/28 03:17:58;;;;;;;5.13;0.60;;;;;;;;;;5302257;28;20020;-73
2022/07/28 03:20:30;;;;;;;3.05;0.65;;;;;;;;;;5302550;28;20418;-73
2022/07/28 03:23:01;;;;;;;2.80;0.52;;;;;;;;;;5302042;28;20032;-73
2022/07/28 03:25:45;;;;;;;5.20;0.70;;;;;;;;;;5302837;28;20039;-73
2022/07/28 03:28:19;;;;;;;6.47;0.70;;;;;;;;;;5302792;28;20024;-74
2022/07/28 03:30:55;;;;;;;3.35;0.70;;;;;;;;;;5302176;28;20031;-73
2022/07/28 03:33:27;;;;;;;4.22;0.50;;;;;;;;;;5302237;28;20032;-73
2022/07/28 03:36:00;;;;;;;3.85;0.60;;;;;;;;;;5302221;28;20016;-73
2022/07/28 03:38:34;;;;;;;3.45;0.60;;;;;;;;;;5302382;28;20050;-72
2022/07/28 03:41:06;;;;;;;4.82;0.70;;;;;;;;;;5302504;28;20055;-73
2022/07/28 03:43:38;;;;;;;1.35;0.52;;;;;;;;;;5302616;28;20567;-73
2022/07/28 03:46:09;;;;;;;2.88;0.60;;;;;;;;;;5301743;28;20557;-73
2022/07/28 03:48:41;;;;;;;3.42;0.70;;;;;;;;;;5302580;28;20013;-73
2022/07/28 03:51:12;;;;;;;4.85;0.80;;;;;;;;;;5301730;28;20074;-73
2022/07/28 03:53:43;;;;;;;3.10;0.60;;;;;;;;;;5302372;28;20103;-74
2022/07/28 03:56:14;;;;;;;4.57;0.60;;;;;;;;;;5302310;28;20262;-73
2022/07/28 03:58:45;;;;;;;5.20;0.70;;;;;;;;;;5301495;28;20028;-73
2022/07/28 04:01:17;;;;;;;3.90;0.90;;;;;;;;;;5301902;28;20258;-73
2022/07/28 04:03:48;;;;;;;4.38;0.93;;;;;;;;;;5302096;28;20473;-72
2022/07/28 04:06:19;;;;;;;5.38;1.10;;;;;;;;;;5301028;28;20446;-73
2022/07/28 04:08:50;;;;;;;2.83;0.60;;;;;;;;;;5302797;28;20093;-73
2022/07/28 04:11:22;;;;;;;3.53;0.77;;;;;;;;;;5302031;28;20099;-73
2022/07/28 04:13:54;;;;;;;5.40;0.80;;;;;;;;;;5301647;28;20258;-73
2022/07/28 04:16:25;;;;;;;3.78;0.70;;;;;;;;;;5301717;28;20008;-73
2022/07/28 04:18:56;;;;;;;3.42;0.70;;;;;;;;;;5302214;28;20028;-73
2022/07/28 04:21:27;;;;;;;2.67;0.75;;;;;;;;;;5300979;28;20078;-73
2022/07/28 04:23:58;;;;;;;2.75;0.60;;;;;;;;;;5302214;28;20031;-73
2022/07/28 04:26:29;;;;;;;2.17;0.55;;;;;;;;;;5300915;28;20459;-74
2022/07/28 04:29:01;;;;;;;5.43;0.80;;;;;;;;;;5301766;28;20270;-73
2022/07/28 04:31:32;;;;;;;7.57;0.80;;;;;;;;;;5302081;28;20379;-72
2022/07/28 04:34:03;;;;;;;4.78;0.80;;;;;;;;;;5301278;28;20012;-73
2022/07/28 04:36:40;;;;;;;3.40;0.60;;;;;;;;;;5301760;28;20044;-73
2022/07/28 04:39:12;;;;;;;2.25;0.85;;;;;;;;;;5301836;28;20328;-73
2022/07/28 04:41:43;;;;;;;5.85;0.80;;;;;;;;;;5301286;28;20113;-73
2022/07/28 04:44:15;;;;;;;3.83;0.75;;;;;;;;;;5302082;28;20451;-73
2022/07/28 04:46:47;;;;;;;3.50;1.00;;;;;;;;;;5301969;28;20048;-73
2022/07/28 04:49:18;;;;;;;3.50;1.10;;;;;;;;;;5304697;28;20632;-73
2022/07/28 04:51:51;;;;;;;3.67;0.90;;;;;;;;;;5305882;28;20851;-73
2022/07/28 04:54:22;;;;;;;4.30;0.90;;;;;;;;;;5304580;28;20020;-73
2022/07/28 04:56:53;;;;;;;8.75;1.00;;;;;;;;;;5306055;28;20520;-73
2022/07/28 04:59:24;;;;;;;3.13;0.80;;;;;;;;;;5305464;28;20043;-73
2022/07/28 05:01:58;;;;;;;2.92;0.90;;;;;;;;;;5304887;28;20342;-73
2022/07/28 05:04:30;;;;;;;7.63;0.70;;;;;;;;;;5305048;28;20032;-73
2022/07/28 05:07:01;;;;;;;7.88;1.13;;;;;;;;;;5305469;28;20043;-73
2022/07/28 05:09:32;;;;;;;5.75;0.98;;;;;;;;;;5304792;28;20019;-73
2022/07/28 05:12:05;;;;;;;4.20;0.90;;;;;;;;;;5305349;28;20016;-73
2022/07/28 05:14:36;;;;;;;3.40;0.70;;;;;;;;;;5305310;28;20028;-73
2022/07/28 05:17:07;;;;;;;6.45;1.00;;;;;;;;;;5304820;28;20448;-73
2022/07/28 05:19:38;;;;;;;3.85;0.90;;;;;;;;;;5305159;28;20042;-73
2022/07/28 05:22:10;;;;;;;6.07;0.90;;;;;;;;;;5305441;28;20315;-73
2022/07/28 05:24:41;;;;;;;7.22;1.13;;;;;;;;;;5304275;28;20266;-74
2022/07/28 05:27:12;;;;;;;5.43;0.60;;;;;;;;;;5304959;28;20262;-74
2022/07/28 05:29:43;;;;;;;6.83;0.90;;;;;;;;;;5305327;28;20262;-74
2022/07/28 05:32:14;;;;;;;4.10;1.00;;;;;;;;;;5304685;28;20651;-73
2022/07/28 05:34:45;;;;;;;7.55;1.23;;;;;;;;;;5304800;28;20375;-74
2022/07/28 05:37:17;;;;;;;7.57;1.00;;;;;;;;;;5304138;28;20648;-74
2022/07/28 05:39:48;;;;;;;3.38;0.90;;;;;;;;;;5304734;28;20594;-74
2022/07/28 05:42:19;;;;;;;5.43;0.90;;;;;;;;;;5304544;28;20772;-74
2022/07/28 05:44:50;;;;;;;2.63;0.67;;;;;;;;;;5304216;28;20106;-74
2022/07/28 05:47:21;;;;;;;2.85;0.63;;;;;;;;;;5304264;28;20327;-74
2022/07/28 05:49:52;;;;;;;8.90;0.90;;;;;;;;;;5304769;28;20475;-74
2022/07/28 05:52:25;;;;;;;3.60;0.80;;;;;;;;;;5303254;28;20074;-74
2022/07/28 05:54:56;;;;;;;5.53;0.85;;;;;;;;;;5304864;28;20357;-74
2022/07/28 05:57:27;;;;;;;5.50;0.70;;;;;;;;;;5303084;28;20111;-74
2022/07/28 05:59:59;;;;;;;4.07;0.88;;;;;;;;;;5303622;28;20374;-74
2022/07/28 06:02:30;;;;;;;8.45;0.70;;;;;;;;;;5303882;28;20028;-74
2022/07/28 06:05:01;;;;;;;4.63;0.82;;;;;;;;;;5303358;28;20430;-74
2022/07/28 06:07:32;;;;;;;5.32;0.77;;;;;;;;;;5304011;28;20016;-74
2022/07/28 06:10:04;;;;;;;3.50;0.60;;;;;;;;;;5304160;28;20008;-74
2022/07/28 06:12:39;;;;;;;4.38;0.73;;;;;;;;;;5303087;28;20269;-74
2022/07/28 06:15:31;;;;;;;7.07;0.70;;;;;;;;;;5303795;28;20016;-73
2022/07/28 06:18:02;;;;;;;6.45;0.65;;;;;;;;;;5303083;28;20033;-74
2022/07/28 06:20:33;;;;;;;4.30;0.70;;;;;;;;;;5302767;28;20069;-73
2022/07/28 06:23:04;;;;;;;7.07;0.80;;;;;;;;;;5303585;28;20298;-73
2022/07/28 06:25:35;;;;;;;4.30;0.70;;;;;;;;;;5302930;28;20812;-72
2022/07/28 06:28:07;;;;;;;4.30;0.80;;;;;;;;;;5303938;28;20289;-73
2022/07/28 06:30:38;;;;;;;5.50;0.80;;;;;;;;;;5303680;28;20281;-73
2022/07/28 06:33:09;;;;;;;5.43;0.77;;;;;;;;;;5302660;28;20069;-72
2022/07/28 06:35:40;;;;;;;6.20;0.60;;;;;;;;;;5303398;28;20031;-73
2022/07/28 06:38:12;;;;;;;5.40;0.85;;;;;;;;;;5303081;28;20039;-73
2022/07/28 06:40:43;;;;;;;5.82;0.98;;;;;;;;;;5302852;28;20051;-73
2022/07/28 06:43:14;;;;;;;3.00;0.60;;;;;;;;;;5303364;28;20028;-73
2022/07/28 06:45:45;;;;;;;9.43;0.70;;;;;;;;;;5303317;28;20099;-73
2022/07/28 06:48:17;;;;;;;5.05;0.88;;;;;;;;;;5302263;28;20024;-73
2022/07/28 06:50:48;;;;;;;3.35;0.60;;;;;;;;;;5303233;28;20012;-72
2022/07/28 06:53:20;;;;;;;3.80;0.65;;;;;;;;;;5302585;28;20027;-71
2022/07/28 06:55:51;;;;;;;7.05;0.70;;;;;;;;;;5300571;28;20073;-71
2022/07/28 06:58:22;;;;;;;4.00;0.60;;;;;;;;;;5299490;28;20016;-73
2022/07/28 07:00:53;;;;;;;6.10;0.80;;;;;;;;;;5302394;28;20053;-73
2022/07/28 07:03:24;;;;;;;4.97;0.70;;;;;;;;;;5302234;28;20294;-71
2022/07/28 07:05:56;;;;;;;5.00;0.52;;;;;;;;;;5302617;28;20099;-72
2022/07/28 07:08:27;;;;;;;5.97;0.60;;;;;;;;;;5301299;28;20031;-72
2022/07/28 07:10:59;;;;;;;4.97;0.60;;;;;;;;;;5302414;28;20060;-72
2022/07/28 07:13:31;;;;;;;4.60;0.70;;;;;;;;;;5301774;28;20023;-73
2022/07/28 07:16:03;;;;;;;2.03;0.50;;;;;;;;;;5301715;28;20016;-72
2022/07/28 07:18:34;;;;;;;3.35;0.75;;;;;;;;;;5302281;28;20026;-72
2022/07/28 07:21:05;;;;;;;3.88;0.50;;;;;;;;;;5302052;28;20093;-71
2022/07/28 07:23:36;;;;;;;5.77;0.60;;;;;;;;;;5301468;28;20444;-72
2022/07/28 07:26:07;;;;;;;6.90;0.80;;;;;;;;;;5301775;28;20284;-72
2022/07/28 07:28:40;;;;;;;7.07;0.50;;;;;;;;;;5302388;28;20262;-72
2022/07/28 07:31:11;;;;;;;4.22;0.70;;;;;;;;;;5301244;28;20258;-73
2022/07/28 07:33:42;;;;;;;4.03;0.50;;;;;;;;;;5301748;28;20520;-72
2022/07/28 07:36:13;;;;;;;4.03;0.53;;;;;;;;;;5301157;28;20774;-72
2022/07/28 07:38:45;;;;;;;7.13;0.50;;;;;;;;;;5301644;28;20667;-72
2022/07/28 07:41:17;;;;;;;7.97;0.65;;;;;;;;;;5302085;28;20284;-72
2022/07/28 07:43:48;;;;;;;4.53;1.05;;;;;;;;;;5301125;28;20058;-73
2022/07/28 07:46:19;;;;;;;2.13;0.50;;;;;;;;;;5301614;28;20048;-72
2022/07/28 07:48:51;;;;;;;5.07;0.50;;;;;;;;;;5302238;28;20277;-72
2022/07/28 07:51:22;;;;;;;5.30;0.60;;;;;;;;;;5300744;28;20273;-72
2022/07/28 07:53:53;;;;;;;5.57;0.60;;;;;;;;;;5302172;28;20377;-75
2022/07/28 07:56:24;;;;;;;6.00;0.40;;;;;;;;;;5301743;28;20470;-75
2022/07/28 07:58:57;;;;;;;3.30;0.95;;;;;;;;;;5301361;28;20293;-76
2022/07/28 08:01:28;;;;;;;6.43;0.70;;;;;;;;;;5301556;28;20721;-74
2022/07/28 08:03:59;;;;;;;5.78;0.65;;;;;;;;;;5302229;28;20073;-76
2022/07/28 08:06:30;;;;;;;4.87;0.50;;;;;;;;;;5301584;28;20258;-75
2022/07/28 08:09:02;;;;;;;6.00;0.45;;;;;;;;;;5302269;28;20273;-73
2022/07/28 08:11:33;;;;;;;3.25;0.40;;;;;;;;;;5301125;28;20265;-73
2022/07/28 08:14:04;;;;;;;7.57;0.60;;;;;;;;;;5301690;28;20106;-72
2022/07/28 08:16:36;;;;;;;2.33;0.60;;;;;;;;;;5301911;28;20737;-73
2022/07/28 08:19:07;;;;;;;3.28;0.40;;;;;;;;;;5301239;28;20028;-74
2022/07/28 08:21:38;;;;;;;2.55;0.40;;;;;;;;;;5301625;28;20044;-73
2022/07/28 08:24:09;;;;;;;3.80;0.80;;;;;;;;;;5306195;28;20043;-74
2022/07/28 08:26:41;;;;;;;4.70;0.50;;;;;;;;;;5304946;28;20342;-74
2022/07/28 08:29:12;;;;;;;6.70;0.40;;;;;;;;;;5306232;28;20400;-73
2022/07/28 08:31:43;;;;;;;3.23;0.40;;;;;;;;;;5306151;28;20064;-74
2022/07/28 08:34:14;;;;;;;5.47;0.50;;;;;;;;;;5305056;28;20274;-74
2022/07/28 08:36:45;;;;;;;9.32;0.68;;;;;;;;;;5305604;28;20266;-74
2022/07/28 08:39:16;;;;;;;7.00;0.67;;;;;;;;;;5305003;28;20473;-74
2022/07/28 08:42:00;;;;;;;3.83;0.45;;;;;;;;;;5305805;28;20309;-74
2022/07/28 08:44:46;;;;;;;4.65;0.40;;;;;;;;;;5305803;28;20270;-72
2022/07/28 08:47:18;;;;;;;4.47;0.50;;;;;;;;;;5304862;28;20030;-72
2022/07/28 08:49:50;;;;;;;4.97;0.60;;;;;;;;;;5306218;28;20031;-73
2022/07/28 08:52:23;;;;;;;5.85;0.57;;;;;;;;;;5305160;28;20024;-73
2022/07/28 08:54:55;;;;;;;3.83;0.50;;;;;;;;;;5305199;28;20024;-73
2022/07/28 08:57:30;;;;;;;5.25;0.50;;;;;;;;;;5305087;28;20020;-73
2022/07/28 09:00:03;;;;;;;5.07;0.32;;;;;;;;;;5305549;28;20039;-73
2022/07/28 09:02:39;;;;;;;3.65;0.40;;;;;;;;;;5304661;28;20072;-74
2022/07/28 09:05:10;;;;;;;3.78;0.40;;;;;;;;;;5305558;28;20024;-73
2022/07/28 09:07:43;;;;;;;4.53;0.40;;;;;;;;;;5304610;28;20020;-71
2022/07/28 09:10:14;;;;;;;10.35;0.65;;;;;;;;;;5305031;28;20016;-76
2022/07/28 09:12:45;;;;;;;6.67;0.57;;;;;;;;;;5304644;28;20016;-75
2022/07/28 09:15:16;;;;;;;3.95;0.45;;;;;;;;;;5304484;28;20258;-74
2022/07/28 09:17:48;;;;;;;5.63;0.47;;;;;;;;;;5305206;28;20020;-74
2022/07/28 09:20:19;;;;;;;3.53;0.40;;;;;;;;;;5304651;28;20392;-73
2022/07/28 09:23:01;;;;;;;3.20;0.70;;;;;;;;;;5304287;28;20302;-73
2022/07/28 09:25:32;;;;;;;4.07;0.40;;;;;;;;;;5303930;28;20065;-74
2022/07/28 09:28:11;;;;;;;4.75;0.45;;;;;;;;;;5304217;28;20027;-74
2022/07/28 09:30:43;;;;;;;4.70;0.40;;;;;;;;;;5303769;28;20031;-73
2022/07/28 09:33:16;;;;;;;3.75;0.38;;;;;;;;;;5303822;28;20028;-73
2022/07/28 09:35:49;;;;;;;5.07;0.40;;;;;;;;;;5303144;28;20024;-74
2022/07/28 09:38:21;;;;;;;4.57;0.40;;;;;;;;;;5304285;28;20043;-74
2022/07/28 09:41:00;;;;;;;4.65;0.40;;;;;;;;;;5304979;28;20552;-74
2022/07/28 09:43:31;;;;;;;4.40;0.30;;;;;;;;;;5303516;28;20031;-73
2022/07/28 09:46:03;;;;;;;5.93;0.40;;;;;;;;;;5304705;28;20079;-73
2022/07/28 09:48:37;;;;;;;3.83;0.30;;;;;;;;;;5304715;28;20524;-73
2022/07/28 09:51:10;;;;;;;4.90;0.73;;;;;;;;;;5303571;28;20102;-74
2022/07/28 09:53:42;;;;;;;4.82;0.40;;;;;;;;;;5304063;28;20015;-73
2022/07/28 09:56:13;;;;;;;3.33;0.38;;;;;;;;;;5304095;28;20514;-73
2022/07/28 09:58:56;;;;;;;5.03;0.40;;;;;;;;;;5303809;28;20482;-73
2022/07/28 10:01:28;;;;;;;6.32;0.38;;;;;;;;;;5303926;28;20085;-73
2022/07/28 10:04:00;;;;;;;3.22;0.50;;;;;;;;;;5303249;28;20458;-74
2022/07/28 10:06:32;;;;;;;3.47;0.70;;;;;;;;;;5304151;28;20023;-72
2022/07/28 10:09:06;;;;;;;4.38;0.60;;;;;;;;;;5304370;28;20409;-73
2022/07/28 10:11:38;;;;;;;5.85;0.70;;;;;;;;;;5303422;28;20024;-73
2022/07/28 10:14:12;;;;;;;1.73;0.40;;;;;;;;;;5303952;28;20078;-72
2022/07/28 10:16:51;;;;;;;9.85;0.85;;;;;;;;;;5303690;28;20012;-73
2022/07/28 10:19:23;;;;;;;3.47;0.30;;;;;;;;;;5302478;28;20012;-72
2022/07/28 10:21:55;;;;;;;3.50;0.38;;;;;;;;;;5304231;28;20328;-72
2022/07/28 10:24:28;;;;;;;2.67;0.38;;;;;;;;;;5303545;28;20114;-72
2022/07/28 10:27:00;;;;;;;2.72;0.30;;;;;;;;;;5303003;28;20023;-73
2022/07/28 10:29:31;;;;;;;5.80;0.30;;;;;;;;;;5302355;28;20644;-72
2022/07/28 10:32:04;;;;;;;5.20;1.20;;;;;;;;;;5300709;28;20093;-72
2022/07/28 10:34:47;;;;;;;6.75;0.40;;;;;;;;;;5302959;28;20107;-72
2022/07/28 10:37:22;;;;;;;2.17;0.52;;;;;;;;;;5301471;28;20122;-73
2022/07/28 10:40:01;;;;;;;3.88;0.47;;;;;;;;;;5302152;28;20020;-72
2022/07/28 10:42:34;;;;;;;3.83;0.40;;;;;;;;;;5303283;28;20463;-72
2022/07/28 10:45:06;;;;;;;5.60;0.77;;;;;;;;;;5303059;28;20402;-72
2022/07/28 10:47:38;;;;;;;3.63;0.40;;;;;;;;;;5302420;28;20609;-72
2022/07/28 10:50:09;;;;;;;5.40;0.40;;;;;;;;;;5303054;28;20047;-73
2022/07/28 10:52:41;;;;;;;4.82;0.40;;;;;;;;;;5303353;28;20018;-73
2022/07/28 10:55:27;;;;;;;1.52;0.47;;;;;;;;;;5302301;28;20099;-73
2022/07/28 10:58:04;;;;;;;3.03;0.40;;;;;;;;;;5303373;28;20372;-72
2022/07/28 11:00:41;;;;;;;2.75;0.30;;;;;;;;;;5302208;28;20475;-73
2022/07/28 11:03:31;;;;;;;4.95;0.50;;;;;;;;;;5303111;28;20040;-73
2022/07/28 11:06:21;;;;;;;8.57;0.55;;;;;;;;;;5302917;28;20047;-72
2022/07/28 11:08:53;;;;;;;2.95;0.30;;;;;;;;;;5302241;28;20035;-72
2022/07/28 11:11:43;;;;;;;3.97;0.40;;;;;;;;;;5302324;28;20023;-72
2022/07/28 11:14:23;;;;;;;3.45;0.40;;;;;;;;;;5301842;28;20026;-72
2022/07/28 11:17:00;;;;;;;3.28;1.17;;;;;;;;;;5302957;28;20047;-72
2022/07/28 11:19:43;;;;;;;3.67;0.40;;;;;;;;;;5302599;28;20416;-72
2022/07/28 11:22:26;;;;;;;2.15;0.30;;;;;;;;;;5301873;28;20050;-72
2022/07/28 11:25:03;;;;;;;10.75;1.08;;;;;;;;;;5303074;28;20051;-72
2022/07/28 11:27:40;;;;;;;2.00;0.30;;;;;;;;;;5302424;28;20024;-72
2022/07/28 11:30:31;;;;;;;3.20;0.40;;;;;;;;;;5301893;28;20022;-72
2022/07/28 11:33:03;;;;;;;1.77;0.30;;;;;;;;;;5291420;28;20386;-72
2022/07/28 11:35:37;;;;;;;4.72;0.40;;;;;;;;;;5301904;28;20047;-72
2022/07/28 11:38:10;;;;;;;4.50;0.40;;;;;;;;;;5302435;28;20444;-73
2022/07/28 11:40:42;;;;;;;5.07;0.35;;;;;;;;;;5302611;28;20348;-72
2022/07/28 11:43:19;;;;;;;2.22;0.55;;;;;;;;;;5301524;28;20032;-72
2022/07/28 11:46:10;;;;;;;4.97;0.47;;;;;;;;;;5302442;28;20130;-72
2022/07/28 11:48:43;;;;;;;4.30;0.63;;;;;;;;;;5301561;28;20533;-72
2022/07/28 11:51:14;;;;;;;4.47;0.32;;;;;;;;;;5301264;28;20012;-73
2022/07/28 11:53:47;;;;;;;2.90;0.30;;;;;;;;;;5302297;28;20466;-72
2022/07/28 11:56:22;;;;;;;2.25;0.30;;;;;;;;;;5300497;28;20531;-73
2022/07/28 11:58:57;;;;;;;2.35;0.30;;;;;;;;;;5301899;28;20104;-73
2022/07/28 12:01:29;;;;;;;2.47;0.30;;;;;;;;;;5301782;28;20511;-72
2022/07/28 12:04:07;;;;;;;4.45;0.40;;;;;;;;;;5301149;28;20043;-72
2022/07/28 12:06:39;;;;;;;3.50;0.30;;;;;;;;;;5301275;28;20415;-72
2022/07/28 12:09:12;;;;;;;4.10;0.50;;;;;;;;;;5301969;28;20043;-72
2022/07/28 12:11:47;;;;;;;4.22;0.30;;;;;;;;;;5301318;28;20104;-71
2022/07/28 12:14:18;;;;;;;4.95;0.40;;;;;;;;;;5301788;28;20016;-72
2022/07/28 12:16:50;;;;;;;4.43;0.40;;;;;;;;;;5302224;28;20081;-71
2022/07/28 12:19:21;;;;;;;5.72;0.50;;;;;;;;;;5300656;28;20324;-72
2022/07/28 12:21:53;;;;;;;7.25;0.40;;;;;;;;;;5302061;28;20379;-72
2022/07/28 12:24:29;;;;;;;2.53;0.30;;;;;;;;;;5300951;28;20035;-72
2022/07/28 12:27:00;;;;;;;4.53;0.30;;;;;;;;;;5301942;28;20032;-72
2022/07/28 12:29:32;;;;;;;3.63;0.40;;;;;;;;;;5301819;28;20419;-71
2022/07/28 12:32:05;;;;;;;2.78;0.30;;;;;;;;;;5300598;28;20036;-72
2022/07/28 12:34:38;;;;;;;2.63;0.38;;;;;;;;;;5301706;28;20020;-72
2022/07/28 12:37:11;;;;;;;1.35;0.30;;;;;;;;;;5301761;28;20016;-72
2022/07/28 12:39:49;;;;;;;1.75;0.25;;;;;;;;;;5301141;28;20481;-72
2022/07/28 12:42:20;;;;;;;4.15;0.30;;;;;;;;;;5301515;28;20016;-73
2022/07/28 12:44:58;;;;;;;2.83;0.28;;;;;;;;;;5302084;28;20360;-73
2022/07/28 12:47:30;;;;;;;3.05;0.30;;;;;;;;;;5300885;28;20097;-73
2022/07/28 12:50:12;;;;;;;6.55;0.40;;;;;;;;;;5301750;28;20024;-73
2022/07/28 12:52:59;;;;;;;1.58;0.20;;;;;;;;;;5300702;28;20020;-72
2022/07/28 12:55:31;;;;;;;2.67;0.40;;;;;;;;;;5300693;28;20347;-71
2022/07/28 12:58:03;;;;;;;5.25;0.40;;;;;;;;;;5301906;28;20099;-71
2022/07/28 13:00:34;;;;;;;4.80;0.30;;;;;;;;;;5300703;28;20085;-70
2022/07/28 13:03:19;;;;;;;5.00;0.40;;;;;;;;;;5301325;28;20071;-72
2022/07/28 13:06:03;;;;;;;3.30;0.30;;;;;;;;;;5301789;28;20023;-73
2022/07/28 13:08:39;;;;;;;2.75;0.30;;;;;;;;;;5302379;28;20040;-72
2022/07/28 13:11:11;;;;;;;3.15;0.30;;;;;;;;;;5305266;28;20466;-72
2022/07/28 13:13:47;;;;;;;3.45;0.30;;;;;;;;;;5304437;28;20016;-73
2022/07/28 13:16:19;;;;;;;5.65;0.30;;;;;;;;;;5304725;28;20427;-71
2022/07/28 13:18:52;;;;;;;5.93;0.30;;;;;;;;;;5305507;28;20012;-71
2022/07/28 13:21:43;;;;;;;4.35;0.50;;;;;;;;;;5303795;28;20047;-71
2022/07/28 13:24:15;;;;;;;5.00;0.45;;;;;;;;;;5304651;28;20024;-71
2022/07/28 13:26:46;;;;;;;2.45;0.25;;;;;;;;;;5305034;28;20584;-71
2022/07/28 13:29:18;;;;;;;5.30;0.20;;;;;;;;;;5304130;28;20094;-71
2022/07/28 13:31:49;;;;;;;2.90;0.20;;;;;;;;;;5305362;28;20262;-71
2022/07/28 13:34:21;;;;;;;2.55;0.30;;;;;;;;;;5304433;28;20115;-71
2022/07/28 13:36:52;;;;;;;2.65;0.30;;;;;;;;;;5304215;28;20062;-71
2022/07/28 13:39:23;;;;;;;3.78;0.28;;;;;;;;;;5304598;28;20085;-71
2022/07/28 13:41:54;;;;;;;3.40;0.30;;;;;;;;;;5303895;28;20032;-71
2022/07/28 13:44:26;;;;;;;3.27;0.40;;;;;;;;;;5304289;28;20024;-71
2022/07/28 13:46:58;;;;;;;4.18;0.30;;;;;;;;;;5303937;28;20616;-71
2022/07/28 13:49:30;;;;;;;1.67;0.30;;;;;;;;;;5303121;28;20024;-70
2022/07/28 13:52:02;;;;;;;4.25;0.50;;;;;;;;;;5299012;28;20582;-71
2022/07/28 13:54:33;;;;;;;2.67;0.30;;;;;;;;;;5303592;28;20012;-70
2022/07/28 13:57:05;;;;;;;4.07;0.30;;;;;;;;;;5303549;28;20095;-73
2022/07/28 13:59:37;;;;;;;3.58;0.50;;;;;;;;;;5303769;28;20020;-70
2022/07/28 14:02:08;;;;;;;4.65;0.30;;;;;;;;;;5304018;28;20103;-71
2022/07/28 14:04:40;;;;;;;5.00;0.30;;;;;;;;;;5302776;28;20024;-70
2022/07/28 14:07:11;;;;;;;4.73;0.30;;;;;;;;;;5304268;28;20339;-69
2022/07/28 14:09:42;;;;;;;3.30;0.20;;;;;;;;;;5303872;28;20254;-71
2022/07/28 14:12:16;;;;;;;2.67;0.30;;;;;;;;;;5302828;28;20066;-71
2022/07/28 14:14:47;;;;;;;5.95;0.40;;;;;;;;;;5303375;28;20016;-72
2022/07/28 14:17:21;;;;;;;3.60;0.30;;;;;;;;;;5302855;28;20026;-72
2022/07/28 14:19:53;;;;;;;5.20;0.40;;;;;;;;;;5302537;28;20042;-71
2022/07/28 14:22:24;;;;;;;7.32;0.30;;;;;;;;;;5303363;28;20390;-72
2022/07/28 14:24:55;;;;;;;6.67;0.40;;;;;;;;;;5302778;28;20020;-72
2022/07/28 14:27:26;;;;;;;6.15;0.45;;;;;;;;;;5303112;28;20317;-72
2022/07/28 14:29:58;;;;;;;16.92;0.40;;;;;;;;;;5302103;28;20437;-72
2022/07/28 14:32:29;;;;;;;8.20;0.40;;;;;;;;;;5301903;28;20066;-71
2022/07/28 14:35:00;;;;;;;3.88;0.28;;;;;;;;;;5297783;28;20020;-72
2022/07/28 14:37:31;;;;;;;3.38;0.28;;;;;;;;;;5302980;28;20352;-72
2022/07/28 14:40:03;;;;;;;3.73;0.33;;;;;;;;;;5302312;28;20024;-72
2022/07/28 14:42:34;;;;;;;4.07;0.30;;;;;;;;;;5302796;28;20123;-72
2022/07/28 14:45:06;;;;;;;2.97;0.40;;;;;;;;;;5302171;28;20439;-73
2022/07/28 14:47:37;;;;;;;4.25;0.35;;;;;;;;;;5302773;28;20368;-72
2022/07/28 14:50:09;;;;;;;3.90;0.47;;;;;;;;;;5302725;28;20016;-72
2022/07/28 14:52:40;;;;;;;4.00;0.40;;;;;;;;;;5302526;28;20449;-72
2022/07/28 14:55:11;;;;;;;6.10;0.30;;;;;;;;;;5302707;28;20016;-72
2022/07/28 14:57:42;;;;;;;2.60;0.30;;;;;;;;;;5302942;28;20115;-72
2022/07/28 15:00:15;;;;;;;4.47;0.30;;;;;;;;;;5302045;28;20020;-72
2022/07/28 15:02:46;;;;;;;4.10;0.30;;;;;;;;;;5303065;28;20360;-72
2022/07/28 15:05:18;;;;;;;2.80;0.30;;;;;;;;;;5302954;28;20066;-72
2022/07/28 15:07:50;;;;;;;2.63;0.30;;;;;;;;;;5302483;28;20023;-71
2022/07/28 15:10:22;;;;;;;3.35;0.25;;;;;;;;;;5302772;28;20447;-73
2022/07/28 15:12:54;;;;;;;3.97;0.53;;;;;;;;;;5302796;28;20027;-70
2022/07/28 15:15:25;;;;;;;3.95;0.65;;;;;;;;;;5301782;28;20012;-70
2022/07/28 15:17:57;;;;;;;3.63;0.40;;;;;;;;;;5303173;28;20080;-71
2022/07/28 15:20:30;;;;;;;3.90;0.30;;;;;;;;;;5301605;28;20063;-71